Evesboro, New Jersey
Current Conditions -  °F | °C
As of 8:54 AM on Sunday 23 Nov 2014 (Local Time) from KVAY Reporting Station
Clear Clear  
Wind Chill: 42°   Ceiling: Unl
Heat Index: 46°   Visibility: 10mi
Dew Point: 22°   Wind: 7mph
Humidity: 39%   Direction: 220°SW
Pressure: 30.23"   Gusts: NA
Location:  39.8786°N, 74.8969°W
Report Text: KVAY 231354Z AUTO 22006KT 10SM CLR 08/M06 A3023 RMK AO2 SLP236 T00781056
Loading
Personal Weather Stations






























Interactive Weather Map New forecast layout! Learn more

10-Day Weather Forecast

Advertisements
Track Severe Weather on mobile